sensor_id;sensor_type;location;lat;lon;timestamp;temperature;humidity
77056;SHT30;67471;44.918;8.614;2023-03-01T00:01:10;5.56;68.20
77056;SHT30;67471;44.918;8.614;2023-03-01T00:04:14;5.75;67.76
77056;SHT30;67471;44.918;8.614;2023-03-01T00:07:17;5.65;68.04
77056;SHT30;67471;44.918;8.614;2023-03-01T00:10:21;5.68;67.96
77056;SHT30;67471;44.918;8.614;2023-03-01T00:13:25;5.71;68.14
77056;SHT30;67471;44.918;8.614;2023-03-01T00:16:31;5.82;67.61
77056;SHT30;67471;44.918;8.614;2023-03-01T00:19:36;5.89;67.52
77056;SHT30;67471;44.918;8.614;2023-03-01T00:22:40;5.83;67.45
77056;SHT30;67471;44.918;8.614;2023-03-01T00:25:44;5.93;67.08
77056;SHT30;67471;44.918;8.614;2023-03-01T00:28:48;5.96;66.85
77056;SHT30;67471;44.918;8.614;2023-03-01T00:31:52;5.89;67.13
77056;SHT30;67471;44.918;8.614;2023-03-01T00:34:56;5.83;67.32
77056;SHT30;67471;44.918;8.614;2023-03-01T00:38:00;5.89;67.45
77056;SHT30;67471;44.918;8.614;2023-03-01T00:41:08;6.05;67.08
77056;SHT30;67471;44.918;8.614;2023-03-01T00:44:12;5.93;67.25
77056;SHT30;67471;44.918;8.614;2023-03-01T00:47:16;5.85;67.46
77056;SHT30;67471;44.918;8.614;2023-03-01T00:50:20;5.89;67.78
77056;SHT30;67471;44.918;8.614;2023-03-01T00:53:24;5.78;68.33
77056;SHT30;67471;44.918;8.614;2023-03-01T00:56:28;5.99;67.72
77056;SHT30;67471;44.918;8.614;2023-03-01T00:59:32;5.89;67.98
77056;SHT30;67471;44.918;8.614;2023-03-01T01:02:36;5.82;68.27
77056;SHT30;67471;44.918;8.614;2023-03-01T01:05:40;5.86;68.20
77056;SHT30;67471;44.918;8.614;2023-03-01T01:08:44;5.86;68.26
77056;SHT30;67471;44.918;8.614;2023-03-01T01:11:50;5.80;68.41
77056;SHT30;67471;44.918;8.614;2023-03-01T01:14:53;5.93;68.09
77056;SHT30;67471;44.918;8.614;2023-03-01T01:17:57;5.89;68.17
77056;SHT30;67471;44.918;8.614;2023-03-01T01:21:10;5.85;68.52
77056;SHT30;67471;44.918;8.614;2023-03-01T01:24:15;5.89;68.43
77056;SHT30;67471;44.918;8.614;2023-03-01T01:27:18;5.79;68.75
77056;SHT30;67471;44.918;8.614;2023-03-01T01:30:22;5.85;68.64
77056;SHT30;67471;44.918;8.614;2023-03-01T01:33:26;5.90;68.37
77056;SHT30;67471;44.918;8.614;2023-03-01T01:36:31;5.93;68.32
77056;SHT30;67471;44.918;8.614;2023-03-01T01:39:35;5.95;67.98
77056;SHT30;67471;44.918;8.614;2023-03-01T01:42:39;5.92;68.40
77056;SHT30;67471;44.918;8.614;2023-03-01T01:45:42;5.96;68.48
77056;SHT30;67471;44.918;8.614;2023-03-01T01:48:56;5.90;68.76
77056;SHT30;67471;44.918;8.614;2023-03-01T01:52:16;5.89;68.57
77056;SHT30;67471;44.918;8.614;2023-03-01T01:55:21;5.86;69.04
77056;SHT30;67471;44.918;8.614;2023-03-01T01:58:28;5.82;69.10
77056;SHT30;67471;44.918;8.614;2023-03-01T02:01:33;5.78;69.28
77056;SHT30;67471;44.918;8.614;2023-03-01T02:04:37;5.79;69.33
77056;SHT30;67471;44.918;8.614;2023-03-01T02:07:41;5.78;69.45
77056;SHT30;67471;44.918;8.614;2023-03-01T02:10:46;5.83;69.33
77056;SHT30;67471;44.918;8.614;2023-03-01T02:13:50;5.71;69.79
77056;SHT30;67471;44.918;8.614;2023-03-01T02:16:54;5.73;69.73
77056;SHT30;67471;44.918;8.614;2023-03-01T02:23:25;5.73;69.87
77056;SHT30;67471;44.918;8.614;2023-03-01T02:26:42;5.76;69.58
77056;SHT30;67471;44.918;8.614;2023-03-01T02:29:48;5.73;69.80
77056;SHT30;67471;44.918;8.614;2023-03-01T02:32:54;5.69;69.84
77056;SHT30;67471;44.918;8.614;2023-03-01T02:36:29;5.76;70.40
77056;SHT30;67471;44.918;8.614;2023-03-01T02:39:39;5.55;70.82
77056;SHT30;67471;44.918;8.614;2023-03-01T02:42:57;5.40;71.30
77056;SHT30;67471;44.918;8.614;2023-03-01T02:46:14;5.48;71.28
77056;SHT30;67471;44.918;8.614;2023-03-01T02:52:51;5.42;71.17
77056;SHT30;67471;44.918;8.614;2023-03-01T02:55:57;5.35;71.65
77056;SHT30;67471;44.918;8.614;2023-03-01T02:59:02;5.28;71.70
77056;SHT30;67471;44.918;8.614;2023-03-01T03:02:24;5.20;71.82
77056;SHT30;67471;44.918;8.614;2023-03-01T03:05:43;5.04;72.52
77056;SHT30;67471;44.918;8.614;2023-03-01T03:08:46;5.28;71.80
77056;SHT30;67471;44.918;8.614;2023-03-01T03:11:50;5.27;71.79
77056;SHT30;67471;44.918;8.614;2023-03-01T03:14:54;5.24;71.94
77056;SHT30;67471;44.918;8.614;2023-03-01T03:17:58;5.28;71.56
77056;SHT30;67471;44.918;8.614;2023-03-01T03:21:02;5.26;71.63
77056;SHT30;67471;44.918;8.614;2023-03-01T03:24:06;5.16;71.96
77056;SHT30;67471;44.918;8.614;2023-03-01T03:27:09;5.13;72.21
77056;SHT30;67471;44.918;8.614;2023-03-01T03:30:16;5.10;72.28
77056;SHT30;67471;44.918;8.614;2023-03-01T03:33:20;5.20;72.04
77056;SHT30;67471;44.918;8.614;2023-03-01T03:36:24;5.07;72.47
77056;SHT30;67471;44.918;8.614;2023-03-01T03:39:28;5.11;72.05
77056;SHT30;67471;44.918;8.614;2023-03-01T03:42:32;5.13;72.02
77056;SHT30;67471;44.918;8.614;2023-03-01T03:45:36;5.11;72.32
77056;SHT30;67471;44.918;8.614;2023-03-01T03:48:42;5.03;72.45
77056;SHT30;67471;44.918;8.614;2023-03-01T03:51:47;5.07;72.16
77056;SHT30;67471;44.918;8.614;2023-03-01T03:54:51;5.07;72.08
77056;SHT30;67471;44.918;8.614;2023-03-01T03:57:57;5.06;72.16
77056;SHT30;67471;44.918;8.614;2023-03-01T04:01:02;5.03;72.14
77056;SHT30;67471;44.918;8.614;2023-03-01T04:04:05;4.94;72.19
77056;SHT30;67471;44.918;8.614;2023-03-01T04:07:10;5.03;72.24
77056;SHT30;67471;44.918;8.614;2023-03-01T04:10:16;4.97;72.24
77056;SHT30;67471;44.918;8.614;2023-03-01T04:13:22;4.86;72.47
77056;SHT30;67471;44.918;8.614;2023-03-01T04:16:25;4.86;72.59
77056;SHT30;67471;44.918;8.614;2023-03-01T04:19:29;4.93;72.40
77056;SHT30;67471;44.918;8.614;2023-03-01T04:22:32;4.86;72.54
77056;SHT30;67471;44.918;8.614;2023-03-01T04:25:38;4.86;72.35
77056;SHT30;67471;44.918;8.614;2023-03-01T04:28:42;4.89;72.25
77056;SHT30;67471;44.918;8.614;2023-03-01T04:31:48;4.73;72.81
77056;SHT30;67471;44.918;8.614;2023-03-01T04:34:52;4.73;72.52
77056;SHT30;67471;44.918;8.614;2023-03-01T04:37:56;4.77;72.74
77056;SHT30;67471;44.918;8.614;2023-03-01T04:40:59;4.79;72.57
77056;SHT30;67471;44.918;8.614;2023-03-01T04:44:03;4.79;72.56
77056;SHT30;67471;44.918;8.614;2023-03-01T04:47:07;4.77;72.56
77056;SHT30;67471;44.918;8.614;2023-03-01T04:50:13;4.79;72.55
77056;SHT30;67471;44.918;8.614;2023-03-01T04:53:17;4.83;72.33
77056;SHT30;67471;44.918;8.614;2023-03-01T04:56:21;4.79;72.51
77056;SHT30;67471;44.918;8.614;2023-03-01T04:59:27;4.84;72.56
77056;SHT30;67471;44.918;8.614;2023-03-01T05:02:30;4.75;72.86
77056;SHT30;67471;44.918;8.614;2023-03-01T05:05:36;4.89;72.41
77056;SHT30;67471;44.918;8.614;2023-03-01T05:08:41;4.94;72.21
77056;SHT30;67471;44.918;8.614;2023-03-01T05:11:45;4.87;72.13
77056;SHT30;67471;44.918;8.614;2023-03-01T05:14:48;4.97;72.42
77056;SHT30;67471;44.918;8.614;2023-03-01T05:17:55;4.89;72.51
77056;SHT30;67471;44.918;8.614;2023-03-01T05:21:10;4.94;72.42
77056;SHT30;67471;44.918;8.614;2023-03-01T05:24:15;5.09;72.12
77056;SHT30;67471;44.918;8.614;2023-03-01T05:27:19;4.97;72.52
77056;SHT30;67471;44.918;8.614;2023-03-01T05:30:25;5.04;72.39
77056;SHT30;67471;44.918;8.614;2023-03-01T05:33:29;5.14;72.24
77056;SHT30;67471;44.918;8.614;2023-03-01T05:36:32;5.13;72.75
77056;SHT30;67471;44.918;8.614;2023-03-01T05:39:36;5.16;72.28
77056;SHT30;67471;44.918;8.614;2023-03-01T05:42:44;5.16;72.16
77056;SHT30;67471;44.918;8.614;2023-03-01T05:45:48;5.23;72.29
77056;SHT30;67471;44.918;8.614;2023-03-01T05:48:52;5.34;71.71
77056;SHT30;67471;44.918;8.614;2023-03-01T05:51:56;5.35;71.59
77056;SHT30;67471;44.918;8.614;2023-03-01T05:55:00;5.40;71.61
77056;SHT30;67471;44.918;8.614;2023-03-01T05:58:07;5.42;71.35
77056;SHT30;67471;44.918;8.614;2023-03-01T06:01:11;5.51;70.81
77056;SHT30;67471;44.918;8.614;2023-03-01T06:04:16;5.48;70.71
77056;SHT30;67471;44.918;8.614;2023-03-01T06:07:20;5.47;70.98
77056;SHT30;67471;44.918;8.614;2023-03-01T06:10:24;5.44;71.05
77056;SHT30;67471;44.918;8.614;2023-03-01T06:13:27;5.52;70.82
77056;SHT30;67471;44.918;8.614;2023-03-01T06:16:31;5.49;71.03
77056;SHT30;67471;44.918;8.614;2023-03-01T06:19:35;5.42;71.38
77056;SHT30;67471;44.918;8.614;2023-03-01T06:22:40;5.51;71.16
77056;SHT30;67471;44.918;8.614;2023-03-01T06:25:43;5.52;70.90
77056;SHT30;67471;44.918;8.614;2023-03-01T06:28:47;5.42;71.22
77056;SHT30;67471;44.918;8.614;2023-03-01T06:31:51;5.59;70.79
77056;SHT30;67471;44.918;8.614;2023-03-01T06:34:55;5.58;70.56
77056;SHT30;67471;44.918;8.614;2023-03-01T06:38:00;5.56;70.57
77056;SHT30;67471;44.918;8.614;2023-03-01T06:41:04;5.68;70.42
77056;SHT30;67471;44.918;8.614;2023-03-01T06:44:08;5.78;69.95
77056;SHT30;67471;44.918;8.614;2023-03-01T06:47:11;5.95;69.29
77056;SHT30;67471;44.918;8.614;2023-03-01T06:50:16;5.93;69.25
77056;SHT30;67471;44.918;8.614;2023-03-01T06:53:20;6.00;69.20
77056;SHT30;67471;44.918;8.614;2023-03-01T06:56:24;6.00;69.11
77056;SHT30;67471;44.918;8.614;2023-03-01T06:59:28;6.00;69.09
77056;SHT30;67471;44.918;8.614;2023-03-01T07:02:31;5.96;69.32
77056;SHT30;67471;44.918;8.614;2023-03-01T07:05:35;5.99;69.14
77056;SHT30;67471;44.918;8.614;2023-03-01T07:08:39;5.99;69.22
77056;SHT30;67471;44.918;8.614;2023-03-01T07:11:43;6.02;69.08
77056;SHT30;67471;44.918;8.614;2023-03-01T07:14:46;6.03;68.83
77056;SHT30;67471;44.918;8.614;2023-03-01T07:17:50;6.07;68.98
77056;SHT30;67471;44.918;8.614;2023-03-01T07:20:54;6.05;69.00
77056;SHT30;67471;44.918;8.614;2023-03-01T07:23:58;6.20;68.53
77056;SHT30;67471;44.918;8.614;2023-03-01T07:27:02;6.09;68.52
77056;SHT30;67471;44.918;8.614;2023-03-01T07:30:07;6.19;68.19
77056;SHT30;67471;44.918;8.614;2023-03-01T07:33:10;6.24;67.88
77056;SHT30;67471;44.918;8.614;2023-03-01T07:36:14;6.27;67.67
77056;SHT30;67471;44.918;8.614;2023-03-01T07:39:18;6.31;67.46
77056;SHT30;67471;44.918;8.614;2023-03-01T07:42:22;6.30;67.61
77056;SHT30;67471;44.918;8.614;2023-03-01T07:45:26;6.23;67.94
77056;SHT30;67471;44.918;8.614;2023-03-01T07:48:31;6.38;67.56
77056;SHT30;67471;44.918;8.614;2023-03-01T07:51:34;6.44;67.28
77056;SHT30;67471;44.918;8.614;2023-03-01T07:54:38;6.33;67.61
77056;SHT30;67471;44.918;8.614;2023-03-01T07:57:42;6.38;67.14
77056;SHT30;67471;44.918;8.614;2023-03-01T08:00:46;6.42;67.06
77056;SHT30;67471;44.918;8.614;2023-03-01T08:03:49;6.52;66.55
77056;SHT30;67471;44.918;8.614;2023-03-01T08:06:54;6.63;66.32
77056;SHT30;67471;44.918;8.614;2023-03-01T08:09:58;6.75;65.69
77056;SHT30;67471;44.918;8.614;2023-03-01T08:13:02;6.71;65.93
77056;SHT30;67471;44.918;8.614;2023-03-01T08:16:10;6.77;66.00
77056;SHT30;67471;44.918;8.614;2023-03-01T08:19:14;6.79;65.28
77056;SHT30;67471;44.918;8.614;2023-03-01T08:22:18;6.87;65.48
77056;SHT30;67471;44.918;8.614;2023-03-01T08:25:22;6.89;65.35
77056;SHT30;67471;44.918;8.614;2023-03-01T08:28:26;7.03;64.86
77056;SHT30;67471;44.918;8.614;2023-03-01T08:31:33;7.08;64.49
77056;SHT30;67471;44.918;8.614;2023-03-01T08:34:38;7.08;64.79
77056;SHT30;67471;44.918;8.614;2023-03-01T08:37:42;7.01;65.18
77056;SHT30;67471;44.918;8.614;2023-03-01T08:40:46;7.13;64.90
77056;SHT30;67471;44.918;8.614;2023-03-01T08:43:50;7.15;65.13
77056;SHT30;67471;44.918;8.614;2023-03-01T08:46:54;7.15;64.90
77056;SHT30;67471;44.918;8.614;2023-03-01T08:49:59;7.18;65.08
77056;SHT30;67471;44.918;8.614;2023-03-01T08:53:03;7.18;65.33
77056;SHT30;67471;44.918;8.614;2023-03-01T08:56:07;7.29;64.71
77056;SHT30;67471;44.918;8.614;2023-03-01T08:59:12;7.39;64.86
77056;SHT30;67471;44.918;8.614;2023-03-01T09:02:17;7.43;64.89
77056;SHT30;67471;44.918;8.614;2023-03-01T09:05:21;7.40;64.85
77056;SHT30;67471;44.918;8.614;2023-03-01T09:08:25;7.53;64.66
77056;SHT30;67471;44.918;8.614;2023-03-01T09:11:29;7.73;63.30
77056;SHT30;67471;44.918;8.614;2023-03-01T09:14:33;7.71;62.92
77056;SHT30;67471;44.918;8.614;2023-03-01T09:17:36;7.66;63.02
77056;SHT30;67471;44.918;8.614;2023-03-01T09:20:40;7.81;62.68
77056;SHT30;67471;44.918;8.614;2023-03-01T09:23:46;7.87;62.50
77056;SHT30;67471;44.918;8.614;2023-03-01T09:26:53;7.81;62.49
77056;SHT30;67471;44.918;8.614;2023-03-01T09:29:56;7.64;63.26
77056;SHT30;67471;44.918;8.614;2023-03-01T09:33:00;7.87;62.24
77056;SHT30;67471;44.918;8.614;2023-03-01T09:36:06;7.84;61.96
77056;SHT30;67471;44.918;8.614;2023-03-01T09:39:10;7.95;61.80
77056;SHT30;67471;44.918;8.614;2023-03-01T09:42:14;7.88;61.96
77056;SHT30;67471;44.918;8.614;2023-03-01T09:45:33;7.80;61.77
77056;SHT30;67471;44.918;8.614;2023-03-01T09:48:43;7.92;62.01
77056;SHT30;67471;44.918;8.614;2023-03-01T09:51:55;7.91;62.80
77056;SHT30;67471;44.918;8.614;2023-03-01T09:54:59;7.99;62.35
77056;SHT30;67471;44.918;8.614;2023-03-01T10:04:45;7.94;62.87
77056;SHT30;67471;44.918;8.614;2023-03-01T10:11:19;7.98;62.09
77056;SHT30;67471;44.918;8.614;2023-03-01T10:15:15;7.82;63.18
77056;SHT30;67471;44.918;8.614;2023-03-01T10:18:04;7.97;62.84
77056;SHT30;67471;44.918;8.614;2023-03-01T10:21:19;8.16;61.74
77056;SHT30;67471;44.918;8.614;2023-03-01T10:24:23;8.09;62.18
77056;SHT30;67471;44.918;8.614;2023-03-01T10:27:37;8.32;61.10
77056;SHT30;67471;44.918;8.614;2023-03-01T10:30:42;8.35;60.66
77056;SHT30;67471;44.918;8.614;2023-03-01T10:33:47;8.36;61.06
77056;SHT30;67471;44.918;8.614;2023-03-01T10:37:09;8.42;61.35
77056;SHT30;67471;44.918;8.614;2023-03-01T10:40:14;8.60;60.74
77056;SHT30;67471;44.918;8.614;2023-03-01T10:43:18;8.60;60.41
77056;SHT30;67471;44.918;8.614;2023-03-01T10:46:26;8.70;59.69
77056;SHT30;67471;44.918;8.614;2023-03-01T10:49:31;8.81;58.71
77056;SHT30;67471;44.918;8.614;2023-03-01T10:52:37;8.79;58.41
77056;SHT30;67471;44.918;8.614;2023-03-01T10:55:41;8.80;58.68
77056;SHT30;67471;44.918;8.614;2023-03-01T10:59:05;8.90;58.27
77056;SHT30;67471;44.918;8.614;2023-03-01T11:08:29;9.05;58.41
77056;SHT30;67471;44.918;8.614;2023-03-01T11:11:34;9.12;58.40
77056;SHT30;67471;44.918;8.614;2023-03-01T11:14:39;9.08;57.24
77056;SHT30;67471;44.918;8.614;2023-03-01T11:17:49;8.90;57.74
77056;SHT30;67471;44.918;8.614;2023-03-01T11:20:55;9.20;56.88
77056;SHT30;67471;44.918;8.614;2023-03-01T11:24:00;9.11;57.51
77056;SHT30;67471;44.918;8.614;2023-03-01T11:27:13;9.08;58.41
77056;SHT30;67471;44.918;8.614;2023-03-01T11:30:39;9.03;59.08
77056;SHT30;67471;44.918;8.614;2023-03-01T11:36:58;9.20;59.17
77056;SHT30;67471;44.918;8.614;2023-03-01T11:40:10;9.11;59.63
77056;SHT30;67471;44.918;8.614;2023-03-01T11:50:40;9.28;57.32
77056;SHT30;67471;44.918;8.614;2023-03-01T11:54:23;9.20;57.27
77056;SHT30;67471;44.918;8.614;2023-03-01T11:57:55;9.21;57.32
77056;SHT30;67471;44.918;8.614;2023-03-01T12:01:32;9.45;56.71
77056;SHT30;67471;44.918;8.614;2023-03-01T12:12:08;9.52;56.59
77056;SHT30;67471;44.918;8.614;2023-03-01T12:15:38;9.55;55.33
77056;SHT30;67471;44.918;8.614;2023-03-01T12:25:58;9.31;57.12
77056;SHT30;67471;44.918;8.614;2023-03-01T12:29:26;9.41;56.56
77056;SHT30;67471;44.918;8.614;2023-03-01T12:32:47;9.59;56.18
77056;SHT30;67471;44.918;8.614;2023-03-01T12:43:10;9.52;56.21
77056;SHT30;67471;44.918;8.614;2023-03-01T12:49:21;9.20;56.62
77056;SHT30;67471;44.918;8.614;2023-03-01T12:52:43;9.45;56.08
77056;SHT30;67471;44.918;8.614;2023-03-01T12:55:47;9.22;57.28
77056;SHT30;67471;44.918;8.614;2023-03-01T13:02:25;8.42;59.26
77056;SHT30;67471;44.918;8.614;2023-03-01T13:05:53;8.41;59.10
77056;SHT30;67471;44.918;8.614;2023-03-01T13:09:23;8.22;60.02
77056;SHT30;67471;44.918;8.614;2023-03-01T13:15:51;8.22;59.72
77056;SHT30;67471;44.918;8.614;2023-03-01T13:19:19;8.06;59.17
77056;SHT30;67471;44.918;8.614;2023-03-01T13:22:30;8.42;57.44
77056;SHT30;67471;44.918;8.614;2023-03-01T13:29:24;8.32;58.78
77056;SHT30;67471;44.918;8.614;2023-03-01T13:32:30;8.16;58.88
77056;SHT30;67471;44.918;8.614;2023-03-01T13:35:43;8.53;58.11
77056;SHT30;67471;44.918;8.614;2023-03-01T13:38:48;8.42;59.26
77056;SHT30;67471;44.918;8.614;2023-03-01T13:42:01;8.52;59.47
77056;SHT30;67471;44.918;8.614;2023-03-01T13:48:33;8.43;60.54
77056;SHT30;67471;44.918;8.614;2023-03-01T13:51:38;8.45;59.88
77056;SHT30;67471;44.918;8.614;2023-03-01T13:54:41;8.56;59.42
77056;SHT30;67471;44.918;8.614;2023-03-01T13:57:48;8.76;59.37
77056;SHT30;67471;44.918;8.614;2023-03-01T14:01:02;8.80;58.46
77056;SHT30;67471;44.918;8.614;2023-03-01T14:07:24;8.76;58.01
77056;SHT30;67471;44.918;8.614;2023-03-01T14:10:37;8.90;57.70
77056;SHT30;67471;44.918;8.614;2023-03-01T14:13:54;8.99;56.62
77056;SHT30;67471;44.918;8.614;2023-03-01T14:20:26;8.79;56.54
77056;SHT30;67471;44.918;8.614;2023-03-01T14:23:31;9.00;56.02
77056;SHT30;67471;44.918;8.614;2023-03-01T14:26:35;9.03;56.74
77056;SHT30;67471;44.918;8.614;2023-03-01T14:29:40;8.87;57.25
77056;SHT30;67471;44.918;8.614;2023-03-01T14:32:58;8.91;58.36
77056;SHT30;67471;44.918;8.614;2023-03-01T14:36:09;8.54;60.44
77056;SHT30;67471;44.918;8.614;2023-03-01T14:39:19;8.16;61.54
77056;SHT30;67471;44.918;8.614;2023-03-01T14:42:25;8.08;63.51
77056;SHT30;67471;44.918;8.614;2023-03-01T14:45:30;8.05;63.38
77056;SHT30;67471;44.918;8.614;2023-03-01T14:48:35;8.16;65.10
77056;SHT30;67471;44.918;8.614;2023-03-01T14:51:40;8.54;64.42
77056;SHT30;67471;44.918;8.614;2023-03-01T14:54:50;8.08;63.65
77056;SHT30;67471;44.918;8.614;2023-03-01T14:57:56;8.06;62.83
77056;SHT30;67471;44.918;8.614;2023-03-01T15:01:03;7.98;62.38
77056;SHT30;67471;44.918;8.614;2023-03-01T15:04:11;8.19;64.03
77056;SHT30;67471;44.918;8.614;2023-03-01T15:07:15;8.53;63.98
77056;SHT30;67471;44.918;8.614;2023-03-01T15:10:22;8.64;65.15
77056;SHT30;67471;44.918;8.614;2023-03-01T15:13:30;8.70;65.31
77056;SHT30;67471;44.918;8.614;2023-03-01T15:16:38;8.84;64.93
77056;SHT30;67471;44.918;8.614;2023-03-01T15:19:45;8.96;65.48
77056;SHT30;67471;44.918;8.614;2023-03-01T15:22:49;8.97;66.05
77056;SHT30;67471;44.918;8.614;2023-03-01T15:25:54;8.93;66.86
77056;SHT30;67471;44.918;8.614;2023-03-01T15:29:01;8.83;67.40
77056;SHT30;67471;44.918;8.614;2023-03-01T15:32:21;8.77;67.90
77056;SHT30;67471;44.918;8.614;2023-03-01T15:35:41;8.80;68.23
77056;SHT30;67471;44.918;8.614;2023-03-01T15:38:54;8.81;69.23
77056;SHT30;67471;44.918;8.614;2023-03-01T15:41:58;8.67;69.68
77056;SHT30;67471;44.918;8.614;2023-03-01T15:45:09;8.64;69.81
77056;SHT30;67471;44.918;8.614;2023-03-01T15:48:18;8.73;70.08
77056;SHT30;67471;44.918;8.614;2023-03-01T15:51:33;8.50;70.94
77056;SHT30;67471;44.918;8.614;2023-03-01T15:54:36;8.60;70.88
77056;SHT30;67471;44.918;8.614;2023-03-01T15:57:43;8.53;71.47
77056;SHT30;67471;44.918;8.614;2023-03-01T16:00:49;8.45;72.13
77056;SHT30;67471;44.918;8.614;2023-03-01T16:03:54;8.28;72.35
77056;SHT30;67471;44.918;8.614;2023-03-01T16:06:59;8.19;72.68
77056;SHT30;67471;44.918;8.614;2023-03-01T16:10:04;8.13;72.23
77056;SHT30;67471;44.918;8.614;2023-03-01T16:13:09;8.28;72.38
77056;SHT30;67471;44.918;8.614;2023-03-01T16:16:14;8.33;72.49
77056;SHT30;67471;44.918;8.614;2023-03-01T16:19:19;8.18;72.88
77056;SHT30;67471;44.918;8.614;2023-03-01T16:22:23;8.02;74.29
77056;SHT30;67471;44.918;8.614;2023-03-01T16:25:29;8.06;74.20
77056;SHT30;67471;44.918;8.614;2023-03-01T16:28:33;8.22;74.14
77056;SHT30;67471;44.918;8.614;2023-03-01T16:31:36;8.21;74.07
77056;SHT30;67471;44.918;8.614;2023-03-01T16:34:40;8.24;74.15
77056;SHT30;67471;44.918;8.614;2023-03-01T16:37:44;8.08;74.87
77056;SHT30;67471;44.918;8.614;2023-03-01T16:40:51;8.21;74.42
77056;SHT30;67471;44.918;8.614;2023-03-01T16:43:54;8.15;74.60
77056;SHT30;67471;44.918;8.614;2023-03-01T16:46:58;8.24;74.63
77056;SHT30;67471;44.918;8.614;2023-03-01T16:50:02;8.19;74.54
77056;SHT30;67471;44.918;8.614;2023-03-01T16:53:06;8.08;75.08
77056;SHT30;67471;44.918;8.614;2023-03-01T16:56:11;8.11;74.94
77056;SHT30;67471;44.918;8.614;2023-03-01T16:59:15;8.15;74.62
77056;SHT30;67471;44.918;8.614;2023-03-01T17:02:19;8.18;74.60
77056;SHT30;67471;44.918;8.614;2023-03-01T17:05:23;8.09;74.87
77056;SHT30;67471;44.918;8.614;2023-03-01T17:08:28;8.02;75.10
77056;SHT30;67471;44.918;8.614;2023-03-01T17:11:32;8.05;75.07
77056;SHT30;67471;44.918;8.614;2023-03-01T17:14:36;7.98;74.90
77056;SHT30;67471;44.918;8.614;2023-03-01T17:17:41;8.05;73.62
77056;SHT30;67471;44.918;8.614;2023-03-01T17:20:44;8.06;73.34
77056;SHT30;67471;44.918;8.614;2023-03-01T17:23:48;7.49;76.11
77056;SHT30;67471;44.918;8.614;2023-03-01T17:26:52;7.37;77.36
77056;SHT30;67471;44.918;8.614;2023-03-01T17:29:56;7.47;77.31
77056;SHT30;67471;44.918;8.614;2023-03-01T17:33:00;7.44;76.87
77056;SHT30;67471;44.918;8.614;2023-03-01T17:36:04;7.64;76.88
77056;SHT30;67471;44.918;8.614;2023-03-01T17:39:09;7.40;77.70
77056;SHT30;67471;44.918;8.614;2023-03-01T17:42:13;7.16;79.25
77056;SHT30;67471;44.918;8.614;2023-03-01T17:45:17;7.24;79.06
77056;SHT30;67471;44.918;8.614;2023-03-01T17:48:21;7.26;79.34
77056;SHT30;67471;44.918;8.614;2023-03-01T17:51:25;7.37;79.06
77056;SHT30;67471;44.918;8.614;2023-03-01T17:54:29;7.36;79.14
77056;SHT30;67471;44.918;8.614;2023-03-01T17:57:40;7.37;79.44
77056;SHT30;67471;44.918;8.614;2023-03-01T18:00:43;7.18;79.62
77056;SHT30;67471;44.918;8.614;2023-03-01T18:03:50;7.43;79.02
77056;SHT30;67471;44.918;8.614;2023-03-01T18:06:53;7.49;78.68
77056;SHT30;67471;44.918;8.614;2023-03-01T18:09:59;7.34;79.01
77056;SHT30;67471;44.918;8.614;2023-03-01T18:13:03;7.34;79.40
77056;SHT30;67471;44.918;8.614;2023-03-01T18:16:11;7.46;79.23
77056;SHT30;67471;44.918;8.614;2023-03-01T18:19:15;7.54;78.43
77056;SHT30;67471;44.918;8.614;2023-03-01T18:22:19;7.61;78.66
77056;SHT30;67471;44.918;8.614;2023-03-01T18:25:23;7.37;79.30
77056;SHT30;67471;44.918;8.614;2023-03-01T18:28:28;7.63;78.55
77056;SHT30;67471;44.918;8.614;2023-03-01T18:31:32;7.56;78.63
77056;SHT30;67471;44.918;8.614;2023-03-01T18:34:36;7.54;78.69
77056;SHT30;67471;44.918;8.614;2023-03-01T18:37:40;7.70;78.07
77056;SHT30;67471;44.918;8.614;2023-03-01T18:40:44;7.69;78.25
77056;SHT30;67471;44.918;8.614;2023-03-01T18:43:48;7.69;78.43
77056;SHT30;67471;44.918;8.614;2023-03-01T18:46:52;7.70;78.32
77056;SHT30;67471;44.918;8.614;2023-03-01T18:49:56;7.61;78.50
77056;SHT30;67471;44.918;8.614;2023-03-01T18:52:59;7.67;78.23
77056;SHT30;67471;44.918;8.614;2023-03-01T18:56:04;7.64;78.38
77056;SHT30;67471;44.918;8.614;2023-03-01T18:59:08;7.73;77.70
77056;SHT30;67471;44.918;8.614;2023-03-01T19:02:12;7.54;78.19
77056;SHT30;67471;44.918;8.614;2023-03-01T19:05:17;7.46;78.28
77056;SHT30;67471;44.918;8.614;2023-03-01T19:08:21;7.37;79.01
77056;SHT30;67471;44.918;8.614;2023-03-01T19:11:44;7.47;78.14
77056;SHT30;67471;44.918;8.614;2023-03-01T19:14:48;7.34;78.43
77056;SHT30;67471;44.918;8.614;2023-03-01T19:17:51;7.19;79.21
77056;SHT30;67471;44.918;8.614;2023-03-01T19:21:03;7.16;79.04
77056;SHT30;67471;44.918;8.614;2023-03-01T19:24:07;7.24;78.75
77056;SHT30;67471;44.918;8.614;2023-03-01T19:27:10;7.08;79.37
77056;SHT30;67471;44.918;8.614;2023-03-01T19:30:14;6.96;79.56
77056;SHT30;67471;44.918;8.614;2023-03-01T19:33:18;6.95;79.42
77056;SHT30;67471;44.918;8.614;2023-03-01T19:36:22;6.72;80.32
77056;SHT30;67471;44.918;8.614;2023-03-01T19:39:35;6.91;79.74
77056;SHT30;67471;44.918;8.614;2023-03-01T19:42:38;7.05;79.45
77056;SHT30;67471;44.918;8.614;2023-03-01T19:45:42;7.06;79.02
77056;SHT30;67471;44.918;8.614;2023-03-01T19:48:46;7.01;79.33
77056;SHT30;67471;44.918;8.614;2023-03-01T19:51:50;6.75;80.21
77056;SHT30;67471;44.918;8.614;2023-03-01T19:54:54;6.84;79.41
77056;SHT30;67471;44.918;8.614;2023-03-01T19:57:57;6.87;79.62
77056;SHT30;67471;44.918;8.614;2023-03-01T20:01:01;6.87;79.62
77056;SHT30;67471;44.918;8.614;2023-03-01T20:04:05;6.77;79.83
77056;SHT30;67471;44.918;8.614;2023-03-01T20:07:09;6.75;79.39
77056;SHT30;67471;44.918;8.614;2023-03-01T20:10:13;6.67;79.60
77056;SHT30;67471;44.918;8.614;2023-03-01T20:13:17;6.70;79.72
77056;SHT30;67471;44.918;8.614;2023-03-01T20:16:23;6.68;78.73
77056;SHT30;67471;44.918;8.614;2023-03-01T20:19:29;6.55;79.46
77056;SHT30;67471;44.918;8.614;2023-03-01T20:22:33;6.58;79.35
77056;SHT30;67471;44.918;8.614;2023-03-01T20:25:37;6.65;79.64
77056;SHT30;67471;44.918;8.614;2023-03-01T20:28:41;6.60;79.18
77056;SHT30;67471;44.918;8.614;2023-03-01T20:31:45;6.54;78.89
77056;SHT30;67471;44.918;8.614;2023-03-01T20:34:49;6.42;79.00
77056;SHT30;67471;44.918;8.614;2023-03-01T20:37:53;6.52;78.48
77056;SHT30;67471;44.918;8.614;2023-03-01T20:40:59;6.54;78.62
77056;SHT30;67471;44.918;8.614;2023-03-01T20:44:03;6.29;78.80
77056;SHT30;67471;44.918;8.614;2023-03-01T20:47:10;6.33;78.62
77056;SHT30;67471;44.918;8.614;2023-03-01T20:50:14;6.23;78.45
77056;SHT30;67471;44.918;8.614;2023-03-01T20:53:18;6.17;79.05
77056;SHT30;67471;44.918;8.614;2023-03-01T20:56:22;6.16;78.71
77056;SHT30;67471;44.918;8.614;2023-03-01T20:59:38;6.23;78.64
77056;SHT30;67471;44.918;8.614;2023-03-01T21:02:42;6.24;78.59
77056;SHT30;67471;44.918;8.614;2023-03-01T21:05:46;6.19;78.35
77056;SHT30;67471;44.918;8.614;2023-03-01T21:08:50;6.20;78.61
77056;SHT30;67471;44.918;8.614;2023-03-01T21:11:54;6.11;78.75
77056;SHT30;67471;44.918;8.614;2023-03-01T21:14:58;6.07;78.88